createdAt,value
2017-04-19T00:00:40.745Z,7.10
2017-04-19T00:01:38.927Z,7.00
2017-04-19T00:02:37.454Z,7.00
2017-04-19T00:03:35.534Z,7.00
2017-04-19T00:04:33.600Z,6.80
2017-04-19T00:05:31.715Z,6.80
2017-04-19T00:06:29.783Z,6.70
2017-04-19T00:07:27.944Z,6.70
2017-04-19T00:08:26.360Z,6.80
2017-04-19T00:09:24.407Z,6.70
2017-04-19T00:10:22.615Z,6.60
2017-04-19T00:11:20.672Z,6.70
2017-04-19T00:12:18.776Z,6.70
2017-04-19T00:13:16.872Z,6.70
2017-04-19T00:14:14.934Z,6.70
2017-04-19T00:15:13.348Z,6.60
2017-04-19T00:16:11.400Z,6.70
2017-04-19T00:17:09.170Z,6.70
2017-04-19T00:18:07.281Z,6.70
2017-04-19T00:19:05.342Z,6.70
2017-04-19T00:20:03.485Z,6.80
2017-04-19T00:21:01.642Z,6.80
2017-04-19T00:21:59.771Z,6.90
2017-04-19T00:22:58.014Z,6.90
2017-04-19T00:23:56.070Z,6.80
2017-04-19T00:24:54.132Z,6.80
2017-04-19T00:25:52.551Z,6.90
2017-04-19T00:26:50.675Z,6.80
2017-04-19T00:27:48.758Z,6.80
2017-04-19T00:28:46.464Z,6.80
2017-04-19T00:29:44.533Z,6.90
2017-04-19T00:30:42.693Z,7.00
2017-04-19T00:31:41.149Z,7.00
2017-04-19T00:32:39.201Z,7.00
2017-04-19T00:33:37.261Z,7.00
2017-04-19T00:34:35.380Z,7.00
2017-04-19T00:35:33.520Z,7.00
2017-04-19T00:36:31.763Z,7.00
2017-04-19T00:37:29.888Z,6.90
2017-04-19T00:38:27.700Z,6.90
2017-04-19T00:39:25.876Z,6.80
2017-04-19T00:40:24.056Z,6.80
2017-04-19T00:41:22.238Z,6.70
2017-04-19T00:42:20.352Z,6.50
2017-04-19T00:43:19.297Z,6.50
2017-04-19T00:44:17.412Z,6.50
2017-04-19T00:45:15.852Z,6.50
2017-04-19T00:46:13.938Z,6.60
2017-04-19T00:47:12.517Z,6.50
2017-04-19T00:48:10.626Z,6.50
2017-04-19T00:49:08.773Z,6.60
2017-04-19T00:50:06.921Z,6.60
2017-04-19T00:51:05.078Z,6.50
2017-04-19T00:52:03.247Z,6.40
2017-04-19T00:53:01.304Z,6.50
2017-04-19T00:53:59.405Z,6.50
2017-04-19T00:54:57.502Z,6.50
2017-04-19T00:55:55.668Z,6.60
2017-04-19T00:56:53.792Z,6.60
2017-04-19T00:57:52.003Z,6.50
2017-04-19T00:58:50.091Z,6.40
2017-04-19T00:59:48.173Z,6.40
2017-04-19T01:00:46.336Z,6.50
2017-04-19T01:01:44.772Z,6.50
2017-04-19T01:02:43.061Z,6.50
2017-04-19T01:03:41.268Z,6.40
2017-04-19T01:04:39.413Z,6.40
2017-04-19T01:05:37.625Z,6.40
2017-04-19T01:06:35.761Z,6.30
2017-04-19T01:07:33.859Z,6.10
2017-04-19T01:08:32.006Z,6.20
2017-04-19T01:09:30.089Z,6.30
2017-04-19T01:10:28.271Z,6.20
2017-04-19T01:11:26.338Z,6.30
2017-04-19T01:12:24.460Z,6.30
2017-04-19T01:13:22.509Z,6.20
2017-04-19T01:14:20.577Z,6.20
2017-04-19T01:15:18.761Z,6.30
2017-04-19T01:16:16.964Z,6.40
2017-04-19T01:17:15.030Z,6.50
2017-04-19T01:18:13.174Z,6.50
2017-04-19T01:19:11.692Z,6.60
2017-04-19T01:20:09.936Z,6.60
2017-04-19T01:21:08.013Z,6.60
2017-04-19T01:22:06.101Z,6.60
2017-04-19T01:23:04.332Z,6.60
2017-04-19T01:24:02.468Z,6.60
2017-04-19T01:25:00.611Z,6.60
2017-04-19T01:25:58.727Z,6.60
2017-04-19T01:26:57.133Z,6.70
2017-04-19T01:27:55.209Z,6.70
2017-04-19T01:28:53.283Z,6.70
2017-04-19T01:29:51.381Z,6.60
2017-04-19T01:30:49.605Z,6.60
2017-04-19T01:31:47.694Z,6.50
2017-04-19T01:32:45.746Z,6.40
2017-04-19T01:33:43.801Z,6.30
2017-04-19T01:34:41.971Z,6.20
2017-04-19T01:35:40.136Z,5.90
2017-04-19T01:36:38.188Z,5.90
2017-04-19T01:37:36.256Z,5.90
2017-04-19T01:38:34.301Z,5.90
2017-04-19T01:39:32.346Z,6.00
2017-04-19T01:40:30.454Z,6.00
2017-04-19T01:41:28.519Z,6.10
2017-04-19T01:42:26.612Z,6.20
2017-04-19T01:43:25.132Z,6.10
2017-04-19T01:44:23.235Z,6.20
2017-04-19T01:45:21.448Z,6.10
2017-04-19T01:46:19.516Z,6.10
2017-04-19T01:47:17.617Z,6.00
2017-04-19T01:48:15.715Z,6.10
2017-04-19T01:49:13.811Z,6.00
2017-04-19T01:50:12.340Z,6.00
2017-04-19T01:51:10.457Z,6.00
2017-04-19T01:52:08.557Z,6.00
2017-04-19T01:53:06.682Z,5.90
2017-04-19T01:54:04.764Z,5.90
2017-04-19T01:55:02.940Z,5.90
2017-04-19T01:56:01.472Z,5.80
2017-04-19T01:56:59.612Z,5.80
2017-04-19T01:57:57.680Z,5.90
2017-04-19T01:58:55.785Z,5.80
2017-04-19T01:59:53.875Z,5.80
2017-04-19T02:00:52.016Z,5.80
2017-04-19T02:01:50.660Z,6.00
2017-04-19T02:02:48.758Z,6.00
2017-04-19T02:03:46.796Z,6.10
2017-04-19T02:04:44.924Z,6.20
2017-04-19T02:06:47.792Z,6.20
2017-04-19T02:07:46.001Z,6.10
2017-04-19T02:08:44.098Z,6.00
2017-04-19T02:09:42.197Z,5.90
2017-04-19T02:10:40.308Z,5.80
2017-04-19T02:11:38.469Z,5.80
2017-04-19T02:12:36.573Z,6.00
2017-04-19T02:13:35.089Z,6.10
2017-04-19T02:14:33.521Z,6.00
2017-04-19T02:15:31.679Z,6.10
2017-04-19T02:16:29.781Z,6.20
2017-04-19T02:17:27.897Z,6.30
2017-04-19T02:18:25.980Z,6.40
2017-04-19T02:19:24.167Z,6.30
2017-04-19T02:20:22.320Z,6.30
2017-04-19T02:21:20.508Z,6.40
2017-04-19T02:22:18.721Z,6.30
2017-04-19T02:23:16.846Z,6.30
2017-04-19T02:24:15.094Z,6.10
2017-04-19T02:25:13.561Z,6.10
2017-04-19T02:26:11.628Z,6.10
2017-04-19T02:27:09.715Z,6.10
2017-04-19T02:28:07.912Z,6.10
2017-04-19T02:29:06.317Z,6.10
2017-04-19T02:30:04.450Z,6.10
2017-04-19T02:31:02.488Z,6.10
2017-04-19T02:32:00.571Z,6.10
2017-04-19T02:32:58.644Z,6.10
2017-04-19T02:33:56.405Z,6.10
2017-04-19T02:34:54.522Z,6.00
2017-04-19T02:35:52.650Z,6.10
2017-04-19T02:36:51.164Z,6.20
2017-04-19T02:37:49.253Z,6.20
2017-04-19T02:38:47.301Z,6.30
2017-04-19T02:39:45.397Z,6.30
2017-04-19T02:40:43.852Z,6.30
2017-04-19T02:41:41.916Z,6.40
2017-04-19T02:42:40.017Z,6.50
2017-04-19T02:43:38.112Z,6.50
2017-04-19T02:44:36.196Z,6.60
2017-04-19T02:45:34.482Z,6.60
2017-04-19T02:46:32.600Z,6.60
2017-04-19T02:47:31.125Z,6.60
2017-04-19T02:48:29.269Z,6.70
2017-04-19T02:49:27.357Z,6.70
2017-04-19T02:50:25.917Z,6.60
2017-04-19T02:51:24.023Z,6.50
2017-04-19T02:52:22.088Z,6.50
2017-04-19T02:53:20.184Z,6.50
2017-04-19T02:54:18.237Z,6.40
2017-04-19T02:55:16.408Z,6.30
2017-04-19T02:56:14.461Z,6.20
2017-04-19T02:57:12.683Z,6.20
2017-04-19T02:58:10.761Z,6.30
2017-04-19T02:59:08.828Z,6.30
2017-04-19T03:00:07.000Z,6.30
2017-04-19T03:01:05.125Z,6.40
2017-04-19T03:02:03.268Z,6.50
2017-04-19T03:03:01.348Z,6.40
2017-04-19T03:03:59.414Z,6.40
2017-04-19T03:04:57.464Z,6.30
2017-04-19T03:05:55.667Z,6.30
2017-04-19T03:06:54.093Z,6.20
2017-04-19T03:07:52.144Z,6.20
2017-04-19T03:08:50.200Z,6.20
2017-04-19T03:09:48.325Z,6.20
2017-04-19T03:10:46.488Z,6.20
2017-04-19T03:11:44.544Z,6.30
2017-04-19T03:12:43.050Z,6.20
2017-04-19T03:13:41.169Z,6.10
2017-04-19T03:14:39.604Z,6.00
2017-04-19T03:15:37.799Z,5.90
2017-04-19T03:16:35.649Z,6.00
2017-04-19T03:17:33.744Z,6.00
2017-04-19T03:18:31.949Z,6.00
2017-04-19T03:19:30.061Z,6.00
2017-04-19T03:20:28.524Z,6.20
2017-04-19T03:21:26.584Z,6.20
2017-04-19T03:22:24.648Z,6.30
2017-04-19T03:23:22.765Z,6.40
2017-04-19T03:24:20.825Z,6.40
2017-04-19T03:25:18.996Z,6.50
2017-04-19T03:26:17.128Z,6.60
2017-04-19T03:27:14.856Z,6.60
2017-04-19T03:28:12.957Z,6.60
2017-04-19T03:29:11.170Z,6.50
2017-04-19T03:30:09.788Z,6.40
2017-04-19T03:31:07.557Z,6.40
2017-04-19T03:32:05.645Z,6.30
2017-04-19T03:33:03.700Z,6.20
2017-04-19T03:34:01.823Z,6.10
2017-04-19T03:34:59.920Z,6.20
2017-04-19T03:35:58.140Z,6.20
2017-04-19T03:36:56.201Z,6.10
2017-04-19T03:37:54.279Z,6.20
2017-04-19T03:38:52.009Z,6.20
2017-04-19T03:39:50.077Z,6.20
2017-04-19T03:40:48.562Z,6.10
2017-04-19T03:41:46.345Z,6.10
2017-04-19T03:42:44.417Z,6.30
2017-04-19T03:43:42.523Z,6.40
2017-04-19T03:44:40.635Z,6.30
2017-04-19T03:45:38.805Z,6.20
2017-04-19T03:46:36.852Z,6.20
2017-04-19T03:47:34.909Z,6.30
2017-04-19T03:48:33.069Z,6.30
2017-04-19T03:49:30.749Z,6.30
2017-04-19T03:50:29.168Z,6.30
2017-04-19T03:51:27.263Z,6.20
2017-04-19T03:52:25.345Z,6.20
2017-04-19T03:53:23.420Z,6.20
2017-04-19T03:54:21.897Z,6.20
2017-04-19T03:55:20.088Z,6.20
2017-04-19T03:56:18.305Z,6.30
2017-04-19T03:57:16.396Z,6.30
2017-04-19T03:58:14.463Z,6.40
2017-04-19T03:59:12.561Z,6.40
2017-04-19T04:00:10.969Z,6.40
2017-04-19T04:01:08.709Z,6.40
2017-04-19T04:02:06.789Z,6.50
2017-04-19T04:03:04.861Z,6.50
2017-04-19T04:04:03.108Z,6.50
2017-04-19T04:05:01.207Z,6.60
2017-04-19T04:05:59.698Z,6.60
2017-04-19T04:06:57.771Z,6.60
2017-04-19T04:07:55.878Z,6.50
2017-04-19T04:08:53.929Z,6.50
2017-04-19T04:09:52.024Z,6.50
2017-04-19T04:10:50.164Z,6.40
2017-04-19T04:11:48.663Z,6.30
2017-04-19T04:12:46.700Z,6.30
2017-04-19T04:13:44.748Z,6.40
2017-04-19T04:14:42.849Z,6.40
2017-04-19T04:15:41.009Z,6.40
2017-04-19T04:16:41.004Z,6.30
2017-04-19T04:17:39.100Z,6.30
2017-04-19T04:18:37.168Z,6.30
2017-04-19T04:19:35.269Z,6.30
2017-04-19T04:20:33.774Z,6.40
2017-04-19T04:21:31.849Z,6.40
2017-04-19T04:22:29.920Z,6.40
2017-04-19T04:23:27.988Z,6.30
2017-04-19T04:24:26.104Z,6.30
2017-04-19T04:25:24.251Z,6.30
2017-04-19T04:26:22.313Z,6.40
2017-04-19T04:27:20.389Z,6.40
2017-04-19T04:28:18.497Z,6.40
2017-04-19T04:29:16.596Z,6.40
2017-04-19T04:30:14.728Z,6.40
2017-04-19T04:31:12.836Z,6.50
2017-04-19T04:32:10.916Z,6.50
2017-04-19T04:33:09.113Z,6.60
2017-04-19T04:34:07.199Z,6.60
2017-04-19T04:35:05.817Z,6.60
2017-04-19T04:36:03.843Z,6.60
2017-04-19T04:37:01.905Z,6.60
2017-04-19T04:38:00.400Z,6.50
2017-04-19T04:38:58.480Z,6.50
2017-04-19T04:39:56.590Z,6.40
2017-04-19T04:40:54.819Z,6.50
2017-04-19T04:41:52.884Z,6.60
2017-04-19T04:42:50.957Z,6.60
2017-04-19T04:43:48.713Z,6.60
2017-04-19T04:44:46.776Z,6.70
2017-04-19T04:45:44.964Z,6.70
2017-04-19T04:46:43.041Z,6.70
2017-04-19T04:47:41.120Z,6.70
2017-04-19T04:48:39.214Z,6.60
2017-04-19T04:49:37.331Z,6.70
2017-04-19T04:50:35.509Z,6.70
2017-04-19T04:51:33.688Z,6.70
2017-04-19T04:52:32.084Z,6.50
2017-04-19T04:53:30.168Z,6.40
2017-04-19T04:54:28.256Z,6.30
2017-04-19T04:55:26.452Z,6.30
2017-04-19T04:56:24.512Z,6.30
2017-04-19T04:57:22.218Z,6.30
2017-04-19T04:58:20.705Z,6.30
2017-04-19T04:59:18.799Z,6.30
2017-04-19T05:00:16.945Z,6.20
2017-04-19T05:01:15.067Z,6.30
2017-04-19T05:02:13.153Z,6.40
2017-04-19T05:03:11.214Z,6.30
2017-04-19T05:04:09.689Z,6.40
2017-04-19T05:05:07.869Z,6.20
2017-04-19T05:06:05.970Z,6.20
2017-04-19T05:07:04.416Z,6.30
2017-04-19T05:08:02.493Z,6.40
2017-04-19T05:09:00.559Z,6.40
2017-04-19T05:09:58.633Z,6.50
2017-04-19T05:10:57.288Z,6.50
2017-04-19T05:11:55.367Z,6.50
2017-04-19T05:12:53.453Z,6.50
2017-04-19T05:13:51.149Z,6.50
2017-04-19T05:14:49.261Z,6.50
2017-04-19T05:15:47.372Z,6.50
2017-04-19T05:16:45.813Z,6.50
2017-04-19T05:17:43.993Z,6.50
2017-04-19T05:18:42.032Z,6.40
2017-04-19T05:19:40.121Z,6.50
2017-04-19T05:20:38.249Z,6.50
2017-04-19T05:21:36.324Z,6.50
2017-04-19T05:22:34.380Z,6.40
2017-04-19T05:23:32.543Z,6.50
2017-04-19T05:24:31.040Z,6.50
2017-04-19T05:25:29.293Z,6.50
2017-04-19T05:26:27.396Z,6.50
2017-04-19T05:27:25.548Z,6.60
2017-04-19T05:28:23.636Z,6.60
2017-04-19T05:29:21.740Z,6.70
2017-04-19T05:30:19.901Z,6.70
2017-04-19T05:31:17.996Z,6.80
2017-04-19T05:32:15.693Z,6.80
2017-04-19T05:33:14.024Z,6.90
2017-04-19T05:34:12.152Z,6.90
2017-04-19T05:35:10.276Z,6.80
2017-04-19T05:36:07.972Z,6.80
2017-04-19T05:37:06.089Z,6.90
2017-04-19T05:38:04.150Z,6.90
2017-04-19T05:39:02.397Z,6.80
2017-04-19T05:40:00.555Z,6.80
2017-04-19T05:40:58.962Z,6.70
2017-04-19T05:41:57.028Z,6.60
2017-04-19T05:42:55.119Z,6.60
2017-04-19T05:43:52.800Z,6.60
2017-04-19T05:44:51.392Z,6.60
2017-04-19T05:45:49.574Z,6.70
2017-04-19T05:46:47.948Z,6.70
2017-04-19T05:47:46.065Z,6.70
2017-04-19T05:48:44.124Z,6.80
2017-04-19T05:49:42.329Z,6.90
2017-04-19T05:50:40.510Z,6.90
2017-04-19T05:51:38.561Z,7.10
2017-04-19T05:52:36.601Z,7.10
2017-04-19T05:53:34.669Z,7.20
2017-04-19T05:54:32.771Z,7.20
2017-04-19T05:55:30.944Z,7.20
2017-04-19T05:56:28.656Z,7.30
2017-04-19T05:57:27.582Z,7.20
2017-04-19T05:58:25.705Z,7.10
2017-04-19T05:59:23.809Z,7.20
2017-04-19T06:00:22.355Z,7.10
2017-04-19T06:01:20.448Z,7.10
2017-04-19T06:02:18.511Z,7.10
2017-04-19T06:03:16.651Z,7.10
2017-04-19T06:04:14.745Z,7.10
2017-04-19T06:05:12.906Z,7.10
2017-04-19T06:06:11.021Z,7.10
2017-04-19T06:07:09.199Z,7.00
2017-04-19T06:08:07.313Z,7.00
2017-04-19T06:09:05.419Z,7.10
2017-04-19T06:10:03.617Z,7.20
2017-04-19T06:11:01.721Z,7.30
2017-04-19T06:12:00.312Z,7.30
2017-04-19T06:12:58.441Z,7.30
2017-04-19T06:13:56.529Z,7.30
2017-04-19T06:14:54.596Z,7.20
2017-04-19T06:15:52.767Z,7.20
2017-04-19T06:16:50.656Z,7.20
2017-04-19T06:17:50.119Z,7.20
2017-04-19T06:18:48.212Z,7.20
2017-04-19T06:19:46.268Z,7.20
2017-04-19T06:20:44.473Z,7.10
2017-04-19T06:21:42.652Z,7.10
2017-04-19T06:22:40.753Z,7.00
2017-04-19T06:23:38.852Z,7.00
2017-04-19T06:24:36.965Z,6.90
2017-04-19T06:25:35.545Z,6.80
2017-04-19T06:26:33.666Z,6.50
2017-04-19T06:27:32.156Z,6.50
2017-04-19T06:28:30.242Z,6.60
2017-04-19T06:29:28.284Z,6.70
2017-04-19T06:30:26.432Z,6.90
2017-04-19T06:31:24.538Z,7.00
2017-04-19T06:32:22.717Z,6.60
2017-04-19T06:33:20.792Z,6.40
2017-04-19T06:34:18.906Z,6.40
2017-04-19T06:35:17.084Z,6.60
2017-04-19T06:36:15.192Z,6.70
2017-04-19T06:37:13.324Z,6.70
2017-04-19T06:38:11.071Z,6.70
2017-04-19T06:39:09.170Z,7.10
2017-04-19T06:40:07.360Z,7.30
2017-04-19T06:41:05.475Z,7.40
2017-04-19T06:42:03.657Z,7.40
2017-04-19T06:43:01.740Z,7.30
2017-04-19T06:43:59.929Z,7.30
2017-04-19T06:44:58.060Z,7.40
2017-04-19T06:45:56.460Z,7.50
2017-04-19T06:46:54.326Z,7.50
2017-04-19T06:47:52.475Z,7.60
2017-04-19T06:48:50.516Z,7.70
2017-04-19T06:49:48.693Z,7.80
2017-04-19T06:50:46.897Z,7.90
2017-04-19T06:51:45.038Z,7.90
2017-04-19T06:52:43.189Z,7.90
2017-04-19T06:53:41.284Z,7.70
2017-04-19T06:54:39.376Z,7.60
2017-04-19T06:55:37.883Z,7.60
2017-04-19T06:56:35.948Z,7.60
2017-04-19T06:57:34.014Z,7.60
2017-04-19T06:58:31.757Z,7.50
2017-04-19T06:59:29.864Z,7.70
2017-04-19T07:00:28.081Z,7.70
2017-04-19T07:01:26.177Z,7.80
2017-04-19T07:02:24.269Z,7.90
2017-04-19T07:03:22.393Z,7.90
2017-04-19T07:04:20.105Z,7.90
2017-04-19T07:05:18.617Z,7.80
2017-04-19T07:06:16.785Z,7.60
2017-04-19T07:07:14.894Z,7.50
2017-04-19T07:08:12.992Z,7.40
2017-04-19T07:09:11.089Z,7.40
2017-04-19T07:10:09.568Z,7.20
2017-04-19T07:11:07.681Z,6.90
2017-04-19T07:12:06.055Z,6.70
2017-04-19T07:13:04.217Z,6.70
2017-04-19T07:14:02.368Z,6.70
2017-04-19T07:15:00.477Z,6.60
2017-04-19T07:15:58.967Z,6.60
2017-04-19T07:16:57.109Z,6.60
2017-04-19T07:17:55.294Z,6.60
2017-04-19T07:18:53.429Z,6.50
2017-04-19T07:19:51.584Z,6.50
2017-04-19T07:20:49.802Z,6.60
2017-04-19T07:21:47.857Z,6.50
2017-04-19T07:22:45.987Z,6.50
2017-04-19T07:23:44.561Z,6.30
2017-04-19T07:24:42.612Z,6.30
2017-04-19T07:25:40.409Z,6.30
2017-04-19T07:26:38.572Z,6.20
2017-04-19T07:27:36.688Z,6.30
2017-04-19T07:28:34.422Z,6.30
2017-04-19T07:29:32.590Z,6.50
2017-04-19T07:30:31.693Z,6.40
2017-04-19T07:31:29.782Z,6.40
2017-04-19T07:32:27.936Z,6.50
2017-04-19T07:33:26.046Z,6.50
2017-04-19T07:34:24.146Z,6.60
2017-04-19T07:35:22.385Z,6.70
2017-04-19T07:36:20.464Z,6.80
2017-04-19T07:37:18.565Z,6.80
2017-04-19T07:38:16.668Z,6.80
2017-04-19T07:39:14.380Z,6.80
2017-04-19T07:40:12.872Z,6.70
2017-04-19T07:41:10.995Z,6.80
2017-04-19T07:42:09.091Z,6.80
2017-04-19T07:43:07.189Z,6.70
2017-04-19T07:44:05.324Z,6.70
2017-04-19T07:45:03.549Z,6.70
2017-04-19T07:46:01.625Z,6.60
2017-04-19T07:46:59.704Z,6.60
2017-04-19T07:47:57.798Z,6.60
2017-04-19T07:48:55.897Z,6.60
2017-04-19T07:49:54.080Z,6.60
2017-04-19T07:50:52.604Z,6.50
2017-04-19T07:51:50.784Z,6.50
2017-04-19T07:52:48.893Z,6.50
2017-04-19T07:53:47.544Z,6.60
2017-04-19T07:54:45.697Z,6.50
2017-04-19T07:55:43.875Z,6.50
2017-04-19T07:56:41.595Z,6.50
2017-04-19T07:57:39.792Z,6.40
2017-04-19T07:58:37.976Z,6.60
2017-04-19T07:59:36.145Z,6.60
2017-04-19T08:00:34.384Z,6.70
2017-04-19T08:01:32.520Z,6.80
2017-04-19T08:02:30.656Z,6.80
2017-04-19T08:03:28.779Z,6.80
2017-04-19T08:04:26.901Z,6.70
2017-04-19T08:05:24.669Z,6.70
2017-04-19T08:06:22.380Z,6.70
2017-04-19T08:07:20.121Z,6.70
2017-04-19T08:08:17.925Z,6.80
2017-04-19T08:09:16.120Z,6.90
2017-04-19T08:10:14.269Z,6.90
2017-04-19T08:11:12.457Z,6.80
2017-04-19T08:12:10.645Z,6.70
2017-04-19T08:13:08.779Z,6.80
2017-04-19T08:14:07.189Z,6.80
2017-04-19T08:15:05.390Z,6.90
2017-04-19T08:16:03.505Z,6.90
2017-04-19T08:17:01.612Z,6.90
2017-04-19T08:17:59.708Z,7.00
2017-04-19T08:18:57.833Z,7.20
2017-04-19T08:19:56.384Z,7.40
2017-04-19T08:20:54.508Z,7.60
2017-04-19T08:21:52.671Z,7.80
2017-04-19T08:22:51.146Z,8.00
2017-04-19T08:23:49.276Z,8.00
2017-04-19T08:24:47.424Z,8.20
2017-04-19T08:25:45.690Z,8.20
2017-04-19T08:26:43.778Z,8.30
2017-04-19T08:27:41.841Z,8.30
2017-04-19T08:28:39.946Z,8.30
2017-04-19T08:29:37.685Z,8.30
2017-04-19T08:30:36.176Z,7.80
2017-04-19T08:31:34.331Z,7.70
2017-04-19T08:32:32.413Z,7.50
2017-04-19T08:33:30.492Z,7.50
2017-04-19T08:34:28.545Z,7.50
2017-04-19T08:35:26.708Z,7.50
2017-04-19T08:36:25.141Z,7.60
2017-04-19T08:37:23.184Z,7.80
2017-04-19T08:38:21.256Z,7.90
2017-04-19T08:39:19.414Z,8.10
2017-04-19T08:40:17.568Z,8.20
2017-04-19T08:41:15.695Z,8.30
2017-04-19T08:42:13.825Z,8.40
2017-04-19T08:43:12.617Z,8.60
2017-04-19T08:44:10.748Z,8.60
2017-04-19T08:45:09.798Z,8.70
2017-04-19T08:46:07.902Z,8.60
2017-04-19T08:47:06.029Z,8.60
2017-04-19T08:48:04.120Z,8.60
2017-04-19T08:49:02.551Z,8.50
2017-04-19T08:50:00.684Z,8.50
2017-04-19T08:50:58.804Z,8.40
2017-04-19T08:51:56.940Z,8.30
2017-04-19T08:52:55.039Z,8.20
2017-04-19T08:53:53.169Z,8.30
2017-04-19T08:54:51.213Z,8.20
2017-04-19T08:55:49.397Z,8.20
2017-04-19T08:56:47.507Z,8.30
2017-04-19T08:57:45.629Z,8.40
2017-04-19T08:58:43.729Z,8.50
2017-04-19T08:59:41.490Z,8.50
2017-04-19T09:00:40.060Z,8.60
2017-04-19T09:01:38.219Z,8.60
2017-04-19T09:02:36.296Z,8.60
2017-04-19T09:03:34.460Z,8.60
2017-04-19T09:04:32.888Z,8.80
2017-04-19T09:05:31.109Z,9.00
2017-04-19T09:06:29.548Z,9.20
2017-04-19T09:07:27.631Z,9.30
2017-04-19T09:08:25.802Z,9.30
2017-04-19T09:09:23.600Z,9.30
2017-04-19T09:10:21.760Z,9.30
2017-04-19T09:11:19.828Z,9.20
2017-04-19T09:12:17.928Z,9.10
2017-04-19T09:13:16.068Z,8.90
2017-04-19T09:14:14.201Z,8.90
2017-04-19T09:15:12.420Z,8.90
2017-04-19T09:16:10.860Z,8.90
2017-04-19T09:17:08.983Z,8.90
2017-04-19T09:18:07.144Z,8.90
2017-04-19T09:19:05.644Z,8.80
2017-04-19T09:20:03.848Z,8.80
2017-04-19T09:21:01.993Z,8.70
2017-04-19T09:22:00.197Z,8.70
2017-04-19T09:22:58.326Z,8.70
2017-04-19T09:23:56.634Z,8.80
2017-04-19T09:24:54.464Z,8.80
2017-04-19T09:25:53.883Z,8.60
2017-04-19T09:26:52.040Z,8.60
2017-04-19T09:27:50.697Z,8.60
2017-04-19T09:28:48.863Z,8.60
2017-04-19T09:29:47.013Z,8.40
2017-04-19T09:30:45.213Z,8.30
2017-04-19T09:31:43.294Z,8.20
2017-04-19T09:32:41.435Z,8.10
2017-04-19T09:33:39.530Z,8.10
2017-04-19T09:34:37.638Z,8.10
2017-04-19T09:35:35.877Z,8.00
2017-04-19T09:36:33.611Z,8.00
2017-04-19T09:37:32.111Z,8.00
2017-04-19T09:38:30.193Z,7.90
2017-04-19T09:39:28.397Z,7.90
2017-04-19T09:40:26.577Z,7.90
2017-04-19T09:41:24.983Z,7.90
2017-04-19T09:42:23.221Z,7.90
2017-04-19T09:43:21.374Z,7.80
2017-04-19T09:44:19.542Z,7.70
2017-04-19T09:45:17.819Z,7.70
2017-04-19T09:46:15.908Z,7.80
2017-04-19T09:47:14.066Z,7.70
2017-04-19T09:48:12.154Z,7.60
2017-04-19T09:49:10.288Z,7.40
2017-04-19T09:50:08.517Z,7.20
2017-04-19T09:51:06.613Z,7.00
2017-04-19T09:52:04.731Z,6.90
2017-04-19T09:53:02.890Z,6.80
2017-04-19T09:54:00.640Z,6.80
2017-04-19T09:54:58.789Z,6.70
2017-04-19T09:55:57.076Z,6.70
2017-04-19T09:56:55.182Z,6.80
2017-04-19T09:57:53.310Z,6.90
2017-04-19T09:58:51.457Z,6.70
2017-04-19T09:59:49.580Z,6.50
2017-04-19T10:00:48.238Z,6.20
2017-04-19T10:01:46.356Z,6.20
2017-04-19T10:02:44.068Z,6.20
2017-04-19T10:03:42.193Z,6.30
2017-04-19T10:04:40.332Z,6.50
2017-04-19T10:05:38.900Z,6.80
2017-04-19T10:06:37.056Z,7.20
2017-04-19T10:07:35.199Z,7.20
2017-04-19T10:08:33.368Z,7.30
2017-04-19T10:09:31.113Z,7.30
2017-04-19T10:10:29.302Z,7.40
2017-04-19T10:11:27.481Z,7.50
2017-04-19T10:12:25.572Z,7.70
2017-04-19T10:13:23.684Z,7.90
2017-04-19T10:14:22.089Z,8.10
2017-04-19T10:15:20.524Z,8.20
2017-04-19T10:16:18.653Z,8.40
2017-04-19T10:17:16.762Z,8.60
2017-04-19T10:18:14.902Z,8.70
2017-04-19T10:19:13.036Z,8.60
2017-04-19T10:20:11.379Z,8.60
2017-04-19T10:21:09.540Z,8.60
2017-04-19T10:22:07.717Z,8.70
2017-04-19T10:23:05.843Z,8.90
2017-04-19T10:24:04.013Z,8.90
2017-04-19T10:25:02.261Z,8.80
2017-04-19T10:26:00.770Z,8.20
2017-04-19T10:26:58.880Z,7.70
2017-04-19T10:27:57.896Z,7.10
2017-04-19T10:28:56.054Z,6.50
2017-04-19T10:29:54.575Z,6.10
2017-04-19T10:30:52.432Z,6.10
2017-04-19T10:31:50.508Z,5.90
2017-04-19T10:32:48.617Z,5.70
2017-04-19T10:33:46.785Z,5.50
2017-04-19T10:34:44.884Z,5.50
2017-04-19T10:35:43.066Z,5.60
2017-04-19T10:36:41.153Z,5.50
2017-04-19T10:37:39.236Z,5.40
2017-04-19T10:38:37.346Z,5.40
2017-04-19T10:39:35.433Z,5.60
2017-04-19T10:40:33.584Z,5.60
2017-04-19T10:41:31.760Z,6.50
2017-04-19T10:42:29.857Z,7.00
2017-04-19T10:43:27.961Z,7.40
2017-04-19T10:44:26.158Z,7.70
2017-04-19T10:45:24.713Z,7.90
2017-04-19T10:46:23.168Z,8.20
2017-04-19T10:47:21.300Z,8.30
2017-04-19T10:48:19.069Z,8.30
2017-04-19T10:49:17.242Z,8.70
2017-04-19T10:50:15.406Z,8.90
2017-04-19T10:51:13.533Z,9.00
2017-04-19T10:52:11.721Z,9.10
2017-04-19T10:53:09.825Z,9.20
2017-04-19T10:54:07.933Z,9.50
2017-04-19T10:55:06.410Z,9.90
2017-04-19T10:56:04.540Z,10.30
2017-04-19T10:57:02.747Z,10.70
2017-04-19T10:58:00.850Z,11.00
2017-04-19T10:58:58.682Z,11.00
2017-04-19T10:59:56.878Z,11.70
2017-04-19T11:00:55.141Z,11.70
2017-04-19T11:01:53.269Z,11.60
2017-04-19T11:02:52.289Z,11.20
2017-04-19T11:03:50.391Z,10.70
2017-04-19T11:04:48.478Z,10.20
2017-04-19T11:05:47.029Z,9.80
2017-04-19T11:06:45.131Z,9.30
2017-04-19T11:07:43.245Z,9.00
2017-04-19T11:08:41.361Z,8.40
2017-04-19T11:09:39.561Z,7.90
2017-04-19T11:10:37.785Z,7.50
2017-04-19T11:11:35.918Z,7.20
2017-04-19T11:12:34.368Z,7.10
2017-04-19T11:13:32.501Z,6.80
2017-04-19T11:14:30.793Z,6.20
2017-04-19T11:15:28.977Z,6.20
2017-04-19T11:16:27.110Z,6.10
2017-04-19T11:17:25.240Z,5.80
2017-04-19T11:18:23.413Z,5.60
2017-04-19T11:19:21.553Z,5.50
2017-04-19T11:20:19.800Z,5.60
2017-04-19T11:21:17.908Z,5.40
2017-04-19T11:22:16.028Z,5.40
2017-04-19T11:23:14.166Z,5.50
2017-04-19T11:24:11.880Z,5.40
2017-04-19T11:25:10.117Z,5.50
2017-04-19T11:26:08.234Z,5.50
2017-04-19T11:27:06.453Z,5.50
2017-04-19T11:28:04.985Z,5.50
2017-04-19T11:29:03.069Z,5.50
2017-04-19T11:30:01.226Z,5.40
2017-04-19T11:31:00.309Z,5.40
2017-04-19T11:31:58.429Z,5.40
2017-04-19T11:32:56.656Z,5.40
2017-04-19T11:33:54.818Z,5.30
2017-04-19T11:34:52.989Z,5.40
2017-04-19T11:35:51.518Z,5.60
2017-04-19T11:36:50.670Z,5.80
2017-04-19T11:37:48.846Z,6.10
2017-04-19T11:38:47.001Z,6.20
2017-04-19T11:39:45.139Z,6.50
2017-04-19T11:40:43.296Z,6.60
2017-04-19T11:41:41.423Z,6.80
2017-04-19T11:42:39.540Z,6.80
2017-04-19T11:43:37.295Z,6.80
2017-04-19T11:44:35.380Z,7.00
2017-04-19T11:45:33.593Z,7.00
2017-04-19T11:46:31.807Z,7.20
2017-04-19T11:47:29.962Z,7.50
2017-04-19T11:48:28.100Z,8.10
2017-04-19T11:49:26.313Z,8.70
2017-04-19T11:50:24.709Z,9.20
2017-04-19T11:51:22.805Z,9.60
2017-04-19T11:52:21.605Z,10.00
2017-04-19T11:53:20.286Z,10.30
2017-04-19T11:54:18.432Z,10.60
2017-04-19T11:55:16.681Z,10.90
2017-04-19T11:56:14.879Z,11.10
2017-04-19T11:57:13.476Z,11.20
2017-04-19T11:58:11.609Z,11.40
2017-04-19T11:59:09.826Z,11.50
2017-04-19T12:00:08.110Z,11.60
2017-04-19T12:01:06.260Z,11.60
2017-04-19T12:02:04.365Z,11.70
2017-04-19T12:03:02.534Z,11.40
2017-04-19T12:04:00.693Z,11.10
2017-04-19T12:04:58.825Z,10.80
2017-04-19T12:05:57.225Z,10.40
2017-04-19T12:06:55.417Z,10.30
2017-04-19T12:07:53.509Z,10.20
2017-04-19T12:08:51.644Z,9.90
2017-04-19T12:09:49.353Z,9.90
2017-04-19T12:10:47.605Z,9.30
2017-04-19T12:11:45.860Z,9.00
2017-04-19T12:12:43.986Z,8.70
2017-04-19T12:13:42.117Z,8.50
2017-04-19T12:14:40.224Z,8.10
2017-04-19T12:15:38.425Z,7.90
2017-04-19T12:16:36.532Z,7.80
2017-04-19T12:17:34.644Z,7.60
2017-04-19T12:18:32.845Z,7.50
2017-04-19T12:19:30.998Z,7.10
2017-04-19T12:20:29.098Z,7.10
2017-04-19T12:21:28.156Z,6.70
2017-04-19T12:22:26.289Z,6.40
2017-04-19T12:23:24.385Z,6.30
2017-04-19T12:24:22.520Z,6.30
2017-04-19T12:25:20.716Z,6.20
2017-04-19T12:26:19.177Z,5.90
2017-04-19T12:27:18.237Z,5.80
2017-04-19T12:28:16.403Z,5.80
2017-04-19T12:29:14.503Z,5.80
2017-04-19T12:30:12.656Z,5.90
2017-04-19T12:31:10.809Z,6.10
2017-04-19T12:32:09.343Z,6.30
2017-04-19T12:33:07.470Z,6.30
2017-04-19T12:34:05.591Z,6.20
2017-04-19T12:35:03.750Z,6.20
2017-04-19T12:36:01.931Z,6.30
2017-04-19T12:37:00.445Z,6.40
2017-04-19T12:37:58.625Z,6.40
2017-04-19T12:38:56.725Z,6.40
2017-04-19T12:39:54.833Z,6.50
2017-04-19T12:40:53.476Z,6.70
2017-04-19T12:41:51.668Z,6.80
2017-04-19T12:42:49.800Z,6.70
2017-04-19T12:43:47.948Z,6.70
2017-04-19T12:44:46.061Z,6.80
2017-04-19T12:45:44.270Z,7.20
2017-04-19T12:46:42.468Z,7.50
2017-04-19T12:47:40.618Z,8.10
2017-04-19T12:48:39.840Z,8.90
2017-04-19T12:49:38.006Z,10.00
2017-04-19T12:50:36.365Z,10.90
2017-04-19T12:51:34.454Z,12.10
2017-04-19T12:52:32.573Z,13.20
2017-04-19T12:53:30.793Z,14.40
2017-04-19T12:54:28.924Z,15.50